sensor_id;sensor_type;location;lat;lon;timestamp;pressure;altitude;pressure_sealevel;temperature;humidity
9059;BME280;4564;42.034;25.834;2024-01-16T00:00:55;98906.28;;;1.52;100.00
9059;BME280;4564;42.034;25.834;2024-01-16T00:03:21;98910.16;;;1.50;100.00
9059;BME280;4564;42.034;25.834;2024-01-16T00:05:49;98907.13;;;1.53;100.00
9059;BME280;4564;42.034;25.834;2024-01-16T00:08:16;98906.97;;;1.54;100.00
9059;BME280;4564;42.034;25.834;2024-01-16T00:10:43;98907.66;;;1.56;100.00
9059;BME280;4564;42.034;25.834;2024-01-16T00:13:09;98907.13;;;1.53;100.00
9059;BME280;4564;42.034;25.834;2024-01-16T00:15:36;98918.84;;;1.60;100.00
9059;BME280;4564;42.034;25.834;2024-01-16T00:18:02;98925.53;;;1.64;100.00
9059;BME280;4564;42.034;25.834;2024-01-16T00:20:29;98919.88;;;1.75;100.00
9059;BME280;4564;42.034;25.834;2024-01-16T00:22:57;98913.53;;;1.76;100.00
9059;BME280;4564;42.034;25.834;2024-01-16T00:25:24;98922.03;;;1.80;100.00
9059;BME280;4564;42.034;25.834;2024-01-16T00:27:50;98921.22;;;1.87;100.00
9059;BME280;4564;42.034;25.834;2024-01-16T00:30:17;98920.91;;;1.98;100.00
9059;BME280;4564;42.034;25.834;2024-01-16T00:32:44;98915.03;;;2.03;100.00
9059;BME280;4564;42.034;25.834;2024-01-16T00:35:11;98912.38;;;2.03;100.00
9059;BME280;4564;42.034;25.834;2024-01-16T00:37:37;98903.16;;;2.05;100.00
9059;BME280;4564;42.034;25.834;2024-01-16T00:40:06;98904.50;;;2.09;100.00
9059;BME280;4564;42.034;25.834;2024-01-16T00:42:35;98903.84;;;1.99;99.98
9059;BME280;4564;42.034;25.834;2024-01-16T00:45:01;98907.53;;;2.15;100.00
9059;BME280;4564;42.034;25.834;2024-01-16T00:47:28;98901.16;;;2.07;99.81
9059;BME280;4564;42.034;25.834;2024-01-16T00:49:55;98900.97;;;2.17;100.00
9059;BME280;4564;42.034;25.834;2024-01-16T00:52:21;98897.13;;;2.11;100.00
9059;BME280;4564;42.034;25.834;2024-01-16T00:54:48;98892.63;;;2.12;99.74
9059;BME280;4564;42.034;25.834;2024-01-16T00:57:17;98886.13;;;2.15;99.57
9059;BME280;4564;42.034;25.834;2024-01-16T00:59:44;98887.13;;;2.14;100.00
9059;BME280;4564;42.034;25.834;2024-01-16T01:02:11;98889.78;;;2.14;100.00
9059;BME280;4564;42.034;25.834;2024-01-16T01:04:38;98893.31;;;2.14;100.00
9059;BME280;4564;42.034;25.834;2024-01-16T01:07:06;98885.94;;;2.08;100.00
9059;BME280;4564;42.034;25.834;2024-01-16T01:09:33;98880.09;;;2.04;100.00
9059;BME280;4564;42.034;25.834;2024-01-16T01:12:00;98875.41;;;2.06;100.00
9059;BME280;4564;42.034;25.834;2024-01-16T01:14:28;98871.56;;;2.09;100.00
9059;BME280;4564;42.034;25.834;2024-01-16T01:16:56;98868.75;;;2.10;100.00
9059;BME280;4564;42.034;25.834;2024-01-16T01:19:23;98867.38;;;2.23;100.00
9059;BME280;4564;42.034;25.834;2024-01-16T01:21:49;98866.72;;;2.21;100.00
9059;BME280;4564;42.034;25.834;2024-01-16T01:24:16;98864.38;;;2.18;100.00
9059;BME280;4564;42.034;25.834;2024-01-16T01:26:43;98853.50;;;2.19;100.00
9059;BME280;4564;42.034;25.834;2024-01-16T01:29:09;98850.63;;;2.29;100.00
9059;BME280;4564;42.034;25.834;2024-01-16T01:31:37;98858.81;;;2.27;99.77
9059;BME280;4564;42.034;25.834;2024-01-16T01:34:04;98858.19;;;2.25;99.53
9059;BME280;4564;42.034;25.834;2024-01-16T01:36:30;98854.97;;;2.22;99.03
9059;BME280;4564;42.034;25.834;2024-01-16T01:38:57;98857.00;;;2.20;99.05
9059;BME280;4564;42.034;25.834;2024-01-16T01:41:24;98853.81;;;2.16;99.82
9059;BME280;4564;42.034;25.834;2024-01-16T01:43:50;98852.97;;;2.24;99.45
9059;BME280;4564;42.034;25.834;2024-01-16T01:46:17;98847.78;;;2.22;99.47
9059;BME280;4564;42.034;25.834;2024-01-16T01:48:46;98850.66;;;2.21;99.32
9059;BME280;4564;42.034;25.834;2024-01-16T01:51:14;98847.81;;;2.14;99.75
9059;BME280;4564;42.034;25.834;2024-01-16T01:53:42;98851.50;;;2.13;100.00
9059;BME280;4564;42.034;25.834;2024-01-16T01:56:10;98853.66;;;2.18;100.00
9059;BME280;4564;42.034;25.834;2024-01-16T01:58:37;98846.63;;;2.17;100.00
9059;BME280;4564;42.034;25.834;2024-01-16T02:01:05;98842.97;;;2.18;100.00
9059;BME280;4564;42.034;25.834;2024-01-16T02:03:32;98840.97;;;2.20;100.00
9059;BME280;4564;42.034;25.834;2024-01-16T02:06:03;98833.94;;;2.19;99.99
9059;BME280;4564;42.034;25.834;2024-01-16T02:08:29;98836.28;;;2.14;100.00
9059;BME280;4564;42.034;25.834;2024-01-16T02:10:56;98826.41;;;2.06;100.00
9059;BME280;4564;42.034;25.834;2024-01-16T02:13:23;98828.59;;;2.02;100.00
9059;BME280;4564;42.034;25.834;2024-01-16T02:15:49;98819.22;;;2.06;99.92
9059;BME280;4564;42.034;25.834;2024-01-16T02:18:16;98828.94;;;2.07;100.00
9059;BME280;4564;42.034;25.834;2024-01-16T02:20:42;98832.94;;;2.11;100.00
9059;BME280;4564;42.034;25.834;2024-01-16T02:23:12;98836.97;;;2.16;100.00
9059;BME280;4564;42.034;25.834;2024-01-16T02:25:41;98829.75;;;2.16;100.00
9059;BME280;4564;42.034;25.834;2024-01-16T02:28:08;98838.13;;;2.21;99.99
9059;BME280;4564;42.034;25.834;2024-01-16T02:30:34;98860.84;;;2.17;99.78
9059;BME280;4564;42.034;25.834;2024-01-16T02:33:01;98860.69;;;2.19;100.00
9059;BME280;4564;42.034;25.834;2024-01-16T02:35:28;98866.72;;;2.13;100.00
9059;BME280;4564;42.034;25.834;2024-01-16T02:37:55;98864.38;;;2.18;100.00
9059;BME280;4564;42.034;25.834;2024-01-16T02:40:22;98870.72;;;2.00;100.00
9059;BME280;4564;42.034;25.834;2024-01-16T02:42:50;98869.22;;;2.06;100.00
9059;BME280;4564;42.034;25.834;2024-01-16T02:45:16;98869.09;;;1.99;100.00
9059;BME280;4564;42.034;25.834;2024-01-16T02:47:43;98870.06;;;1.98;100.00
9059;BME280;4564;42.034;25.834;2024-01-16T02:50:09;98876.28;;;1.99;100.00
9059;BME280;4564;42.034;25.834;2024-01-16T02:52:36;98865.91;;;2.04;100.00
9059;BME280;4564;42.034;25.834;2024-01-16T02:55:03;98871.25;;;2.04;100.00
9059;BME280;4564;42.034;25.834;2024-01-16T02:57:30;98873.41;;;2.00;100.00
9059;BME280;4564;42.034;25.834;2024-01-16T02:59:58;98872.25;;;2.03;100.00
9059;BME280;4564;42.034;25.834;2024-01-16T03:02:25;98875.91;;;2.02;100.00
9059;BME280;4564;42.034;25.834;2024-01-16T03:04:51;98886.94;;;1.91;100.00
9059;BME280;4564;42.034;25.834;2024-01-16T03:07:18;98887.09;;;1.89;100.00
9059;BME280;4564;42.034;25.834;2024-01-16T03:09:45;98885.59;;;1.79;100.00
9059;BME280;4564;42.034;25.834;2024-01-16T03:12:11;98879.59;;;1.68;100.00
9059;BME280;4564;42.034;25.834;2024-01-16T03:14:38;98875.25;;;1.76;100.00
9059;BME280;4564;42.034;25.834;2024-01-16T03:17:06;98886.31;;;1.89;100.00
9059;BME280;4564;42.034;25.834;2024-01-16T03:19:32;98881.75;;;1.89;100.00
9059;BME280;4564;42.034;25.834;2024-01-16T03:21:59;98889.13;;;1.87;100.00
9059;BME280;4564;42.034;25.834;2024-01-16T03:24:26;98901.81;;;2.01;100.00
9059;BME280;4564;42.034;25.834;2024-01-16T03:26:52;98905.84;;;1.97;100.00
9059;BME280;4564;42.034;25.834;2024-01-16T03:29:19;98891.78;;;1.95;100.00
9059;BME280;4564;42.034;25.834;2024-01-16T03:31:45;98901.50;;;1.88;100.00
9059;BME280;4564;42.034;25.834;2024-01-16T03:34:14;98908.50;;;1.89;100.00
9059;BME280;4564;42.034;25.834;2024-01-16T03:36:41;98905.84;;;1.89;100.00
9059;BME280;4564;42.034;25.834;2024-01-16T03:39:07;98892.47;;;1.89;100.00
9059;BME280;4564;42.034;25.834;2024-01-16T03:41:35;98881.09;;;1.71;100.00
9059;BME280;4564;42.034;25.834;2024-01-16T03:44:02;98873.72;;;1.49;100.00
9059;BME280;4564;42.034;25.834;2024-01-16T03:46:28;98879.72;;;1.35;100.00
9059;BME280;4564;42.034;25.834;2024-01-16T03:48:55;98883.03;;;1.29;100.00
9059;BME280;4564;42.034;25.834;2024-01-16T03:51:23;98901.41;;;1.23;100.00
9059;BME280;4564;42.034;25.834;2024-01-16T03:53:50;98909.75;;;1.29;100.00
9059;BME280;4564;42.034;25.834;2024-01-16T03:56:16;98917.09;;;1.26;100.00
9059;BME280;4564;42.034;25.834;2024-01-16T03:58:43;98923.06;;;1.20;100.00
9059;BME280;4564;42.034;25.834;2024-01-16T04:01:09;98918.72;;;1.11;100.00
9059;BME280;4564;42.034;25.834;2024-01-16T04:03:38;98918.72;;;1.11;100.00
9059;BME280;4564;42.034;25.834;2024-01-16T04:06:13;98928.41;;;1.12;100.00
9059;BME280;4564;42.034;25.834;2024-01-16T04:08:41;98928.41;;;1.12;100.00
9059;BME280;4564;42.034;25.834;2024-01-16T04:11:11;98931.38;;;1.09;100.00
9059;BME280;4564;42.034;25.834;2024-01-16T04:13:37;98933.06;;;1.10;100.00
9059;BME280;4564;42.034;25.834;2024-01-16T04:16:04;98944.22;;;1.06;100.00
9059;BME280;4564;42.034;25.834;2024-01-16T04:18:32;98947.31;;;0.85;100.00
9059;BME280;4564;42.034;25.834;2024-01-16T04:20:59;98948.81;;;0.88;100.00
9059;BME280;4564;42.034;25.834;2024-01-16T04:23:26;98951.19;;;0.91;100.00
9059;BME280;4564;42.034;25.834;2024-01-16T04:25:53;98943.47;;;0.88;100.00
9059;BME280;4564;42.034;25.834;2024-01-16T04:28:20;98957.44;;;0.81;100.00
9059;BME280;4564;42.034;25.834;2024-01-16T04:30:47;98966.28;;;0.82;100.00
9059;BME280;4564;42.034;25.834;2024-01-16T04:33:13;98976.19;;;0.90;100.00
9059;BME280;4564;42.034;25.834;2024-01-16T04:35:40;98987.72;;;0.90;100.00
9059;BME280;4564;42.034;25.834;2024-01-16T04:38:07;98989.19;;;0.84;100.00
9059;BME280;4564;42.034;25.834;2024-01-16T04:40:33;98986.72;;;0.91;100.00
9059;BME280;4564;42.034;25.834;2024-01-16T04:43:02;98993.53;;;0.86;100.00
9059;BME280;4564;42.034;25.834;2024-01-16T04:45:28;98987.66;;;0.82;100.00
9059;BME280;4564;42.034;25.834;2024-01-16T04:47:55;98998.66;;;0.79;100.00
9059;BME280;4564;42.034;25.834;2024-01-16T04:50:22;99012.16;;;0.77;100.00
9059;BME280;4564;42.034;25.834;2024-01-16T04:52:48;99016.16;;;0.73;100.00
9059;BME280;4564;42.034;25.834;2024-01-16T04:55:15;99024.03;;;0.83;100.00
9059;BME280;4564;42.034;25.834;2024-01-16T04:57:42;99014.53;;;0.80;100.00
9059;BME280;4564;42.034;25.834;2024-01-16T05:00:11;99005.00;;;0.78;100.00
9059;BME280;4564;42.034;25.834;2024-01-16T05:02:38;99014.81;;;0.77;100.00
9059;BME280;4564;42.034;25.834;2024-01-16T05:05:05;99026.69;;;0.75;100.00
9059;BME280;4564;42.034;25.834;2024-01-16T05:07:32;99037.41;;;0.83;100.00
9059;BME280;4564;42.034;25.834;2024-01-16T05:09:59;99053.75;;;0.80;100.00
9059;BME280;4564;42.034;25.834;2024-01-16T05:12:25;99056.88;;;0.75;100.00
9059;BME280;4564;42.034;25.834;2024-01-16T05:14:52;99062.66;;;0.71;100.00
9059;BME280;4564;42.034;25.834;2024-01-16T05:17:20;99061.38;;;0.75;100.00
9059;BME280;4564;42.034;25.834;2024-01-16T05:19:47;99079.69;;;0.70;100.00
9059;BME280;4564;42.034;25.834;2024-01-16T05:22:13;99075.03;;;0.72;100.00
9059;BME280;4564;42.034;25.834;2024-01-16T05:24:40;99068.38;;;0.76;100.00
9059;BME280;4564;42.034;25.834;2024-01-16T05:27:07;99084.63;;;0.82;100.00
9059;BME280;4564;42.034;25.834;2024-01-16T05:29:34;99099.16;;;0.88;100.00
9059;BME280;4564;42.034;25.834;2024-01-16T05:32:02;99109.56;;;0.91;100.00
9059;BME280;4564;42.034;25.834;2024-01-16T05:34:31;99107.78;;;1.00;100.00
9059;BME280;4564;42.034;25.834;2024-01-16T05:36:57;99111.31;;;1.08;100.00
9059;BME280;4564;42.034;25.834;2024-01-16T05:39:24;99121.97;;;1.00;100.00
9059;BME280;4564;42.034;25.834;2024-01-16T05:41:51;99137.31;;;0.98;100.00
9059;BME280;4564;42.034;25.834;2024-01-16T05:44:17;99136.09;;;0.93;100.00
9059;BME280;4564;42.034;25.834;2024-01-16T05:46:44;99133.22;;;0.86;100.00
9059;BME280;4564;42.034;25.834;2024-01-16T05:49:11;99130.09;;;0.91;100.00
9059;BME280;4564;42.034;25.834;2024-01-16T05:51:39;99140.38;;;0.86;100.00
9059;BME280;4564;42.034;25.834;2024-01-16T05:54:05;99141.22;;;0.86;100.00
9059;BME280;4564;42.034;25.834;2024-01-16T05:56:32;99144.19;;;0.83;100.00
9059;BME280;4564;42.034;25.834;2024-01-16T05:58:59;99163.56;;;0.85;100.00
9059;BME280;4564;42.034;25.834;2024-01-16T06:01:26;99163.03;;;0.81;100.00
9059;BME280;4564;42.034;25.834;2024-01-16T06:03:52;99170.88;;;0.83;100.00
9059;BME280;4564;42.034;25.834;2024-01-16T06:06:19;99177.81;;;0.94;100.00
9059;BME280;4564;42.034;25.834;2024-01-16T06:08:47;99165.31;;;0.94;100.00
9059;BME280;4564;42.034;25.834;2024-01-16T06:11:14;99170.81;;;0.93;100.00
9059;BME280;4564;42.034;25.834;2024-01-16T06:13:40;99180.63;;;0.92;100.00
9059;BME280;4564;42.034;25.834;2024-01-16T06:16:07;99190.72;;;0.98;100.00
9059;BME280;4564;42.034;25.834;2024-01-16T06:18:34;99202.56;;;1.13;100.00
9059;BME280;4564;42.034;25.834;2024-01-16T06:21:01;99209.69;;;1.31;100.00
9059;BME280;4564;42.034;25.834;2024-01-16T06:23:28;99226.69;;;1.47;100.00
9059;BME280;4564;42.034;25.834;2024-01-16T06:25:56;99250.84;;;1.89;100.00
9059;BME280;4564;42.034;25.834;2024-01-16T06:28:23;99260.06;;;1.95;98.73
9059;BME280;4564;42.034;25.834;2024-01-16T06:30:49;99273.09;;;1.90;97.88
9059;BME280;4564;42.034;25.834;2024-01-16T06:33:16;99273.75;;;2.18;98.30
9059;BME280;4564;42.034;25.834;2024-01-16T06:35:42;99276.84;;;2.31;96.26
9059;BME280;4564;42.034;25.834;2024-01-16T06:38:09;99286.50;;;2.24;96.36
9059;BME280;4564;42.034;25.834;2024-01-16T06:40:36;99299.06;;;1.97;96.88
9059;BME280;4564;42.034;25.834;2024-01-16T06:43:04;99309.56;;;1.73;97.58
9059;BME280;4564;42.034;25.834;2024-01-16T06:45:31;99303.94;;;1.76;99.31
9059;BME280;4564;42.034;25.834;2024-01-16T06:47:58;99304.34;;;2.41;99.88
9059;BME280;4564;42.034;25.834;2024-01-16T06:50:24;99314.84;;;3.34;99.62
9059;BME280;4564;42.034;25.834;2024-01-16T06:52:51;99314.00;;;4.07;93.88
9059;BME280;4564;42.034;25.834;2024-01-16T06:55:18;99303.31;;;4.54;88.31
9059;BME280;4564;42.034;25.834;2024-01-16T06:57:44;99314.75;;;4.95;89.37
9059;BME280;4564;42.034;25.834;2024-01-16T07:00:14;99316.53;;;5.33;87.10
9059;BME280;4564;42.034;25.834;2024-01-16T07:02:41;99334.22;;;5.73;87.53
9059;BME280;4564;42.034;25.834;2024-01-16T07:05:08;99326.50;;;6.16;83.51
9059;BME280;4564;42.034;25.834;2024-01-16T07:07:35;99339.56;;;6.56;82.07
9059;BME280;4564;42.034;25.834;2024-01-16T07:10:02;99336.69;;;6.72;80.48
9059;BME280;4564;42.034;25.834;2024-01-16T07:12:28;99334.47;;;7.27;77.66
9059;BME280;4564;42.034;25.834;2024-01-16T07:14:55;99341.09;;;7.09;74.67
9059;BME280;4564;42.034;25.834;2024-01-16T07:17:23;99352.16;;;7.14;74.62
9059;BME280;4564;42.034;25.834;2024-01-16T07:19:50;99351.78;;;7.32;74.40
9059;BME280;4564;42.034;25.834;2024-01-16T07:22:17;99369.06;;;7.38;72.42
9059;BME280;4564;42.034;25.834;2024-01-16T07:24:43;99365.97;;;7.55;72.82
9059;BME280;4564;42.034;25.834;2024-01-16T07:27:10;99333.25;;;7.65;73.97
9059;BME280;4564;42.034;25.834;2024-01-16T07:29:36;99374.34;;;8.03;72.84
9059;BME280;4564;42.034;25.834;2024-01-16T07:32:05;99381.81;;;8.50;73.09
9059;BME280;4564;42.034;25.834;2024-01-16T07:34:33;99392.22;;;8.81;70.74
9059;BME280;4564;42.034;25.834;2024-01-16T07:37:00;99392.63;;;9.12;67.74
9059;BME280;4564;42.034;25.834;2024-01-16T07:39:27;99389.72;;;9.14;66.83
9059;BME280;4564;42.034;25.834;2024-01-16T07:41:53;99387.06;;;8.86;67.75
9059;BME280;4564;42.034;25.834;2024-01-16T07:44:20;99383.59;;;8.64;67.63
9059;BME280;4564;42.034;25.834;2024-01-16T07:46:47;99400.25;;;8.19;68.85
9059;BME280;4564;42.034;25.834;2024-01-16T07:49:13;99398.28;;;7.49;71.92
9059;BME280;4564;42.034;25.834;2024-01-16T07:51:42;99393.53;;;7.36;72.42
9059;BME280;4564;42.034;25.834;2024-01-16T07:54:09;99403.69;;;7.20;74.97
9059;BME280;4564;42.034;25.834;2024-01-16T07:56:38;99412.44;;;6.92;75.40
9059;BME280;4564;42.034;25.834;2024-01-16T07:59:05;99416.53;;;6.88;76.64
9059;BME280;4564;42.034;25.834;2024-01-16T08:01:32;99426.41;;;6.96;76.05
9059;BME280;4564;42.034;25.834;2024-01-16T08:03:58;99425.19;;;7.13;77.68
9059;BME280;4564;42.034;25.834;2024-01-16T08:06:25;99436.34;;;7.39;76.12
9059;BME280;4564;42.034;25.834;2024-01-16T08:08:54;99449.44;;;7.57;75.72
9059;BME280;4564;42.034;25.834;2024-01-16T08:11:20;99450.13;;;7.80;72.03
9059;BME280;4564;42.034;25.834;2024-01-16T08:13:47;99456.47;;;8.09;73.37
9059;BME280;4564;42.034;25.834;2024-01-16T08:16:13;99468.63;;;8.34;71.73
9059;BME280;4564;42.034;25.834;2024-01-16T08:18:40;99473.78;;;8.78;70.93
9059;BME280;4564;42.034;25.834;2024-01-16T08:21:07;99479.69;;;9.16;67.23
9059;BME280;4564;42.034;25.834;2024-01-16T08:23:33;99480.63;;;9.36;65.95
9059;BME280;4564;42.034;25.834;2024-01-16T08:26:02;99503.09;;;9.64;65.72
9059;BME280;4564;42.034;25.834;2024-01-16T08:28:28;99508.88;;;9.61;65.75
9059;BME280;4564;42.034;25.834;2024-01-16T08:30:55;99505.09;;;9.56;66.07
9059;BME280;4564;42.034;25.834;2024-01-16T08:33:21;99516.88;;;9.35;65.29
9059;BME280;4564;42.034;25.834;2024-01-16T08:35:48;99527.63;;;9.22;67.56
9059;BME280;4564;42.034;25.834;2024-01-16T08:38:15;99524.75;;;9.30;67.44
9059;BME280;4564;42.034;25.834;2024-01-16T08:40:41;99521.56;;;9.20;66.18
9059;BME280;4564;42.034;25.834;2024-01-16T08:43:09;99527.47;;;9.30;67.72
9059;BME280;4564;42.034;25.834;2024-01-16T08:45:36;99524.44;;;9.46;67.72
9059;BME280;4564;42.034;25.834;2024-01-16T08:48:03;99529.16;;;9.72;68.04
9059;BME280;4564;42.034;25.834;2024-01-16T08:50:30;99526.78;;;9.97;70.50
9059;BME280;4564;42.034;25.834;2024-01-16T08:52:56;99532.25;;;10.03;67.86
9059;BME280;4564;42.034;25.834;2024-01-16T08:55:23;99537.34;;;10.20;67.11
9059;BME280;4564;42.034;25.834;2024-01-16T08:57:50;99535.03;;;10.23;67.38
9059;BME280;4564;42.034;25.834;2024-01-16T09:00:18;99548.41;;;10.31;67.43
9059;BME280;4564;42.034;25.834;2024-01-16T09:02:45;99551.81;;;10.53;67.65
9059;BME280;4564;42.034;25.834;2024-01-16T09:05:11;99549.94;;;10.60;68.26
9059;BME280;4564;42.034;25.834;2024-01-16T09:07:38;99548.13;;;10.74;68.44
9059;BME280;4564;42.034;25.834;2024-01-16T09:10:05;99552.50;;;10.88;68.38
9059;BME280;4564;42.034;25.834;2024-01-16T09:12:32;99553.31;;;10.82;67.82
9059;BME280;4564;42.034;25.834;2024-01-16T09:14:59;99545.00;;;10.90;69.78
9059;BME280;4564;42.034;25.834;2024-01-16T09:17:27;99553.78;;;11.05;68.94
9059;BME280;4564;42.034;25.834;2024-01-16T09:19:53;99549.59;;;11.09;67.58
9059;BME280;4564;42.034;25.834;2024-01-16T09:22:20;99559.41;;;11.10;68.67
9059;BME280;4564;42.034;25.834;2024-01-16T09:24:46;99561.25;;;10.97;69.24
9059;BME280;4564;42.034;25.834;2024-01-16T09:27:13;99569.81;;;10.80;69.31
9059;BME280;4564;42.034;25.834;2024-01-16T09:29:41;99574.56;;;10.45;70.50
9059;BME280;4564;42.034;25.834;2024-01-16T09:32:08;99569.06;;;10.32;71.81
9059;BME280;4564;42.034;25.834;2024-01-16T09:34:36;99568.00;;;10.20;71.94
9059;BME280;4564;42.034;25.834;2024-01-16T09:37:03;99570.19;;;10.03;72.75
9059;BME280;4564;42.034;25.834;2024-01-16T09:39:30;99583.06;;;9.95;72.41
9059;BME280;4564;42.034;25.834;2024-01-16T09:41:57;99587.13;;;9.71;73.11
9059;BME280;4564;42.034;25.834;2024-01-16T09:44:26;99588.47;;;9.54;73.86
9059;BME280;4564;42.034;25.834;2024-01-16T09:46:53;99589.06;;;9.56;74.09
9059;BME280;4564;42.034;25.834;2024-01-16T09:49:21;99591.34;;;9.52;74.41
9059;BME280;4564;42.034;25.834;2024-01-16T09:51:49;99589.84;;;9.43;75.02
9059;BME280;4564;42.034;25.834;2024-01-16T09:54:18;99590.69;;;9.50;75.40
9059;BME280;4564;42.034;25.834;2024-01-16T09:56:44;99584.91;;;9.53;75.74
9059;BME280;4564;42.034;25.834;2024-01-16T09:59:15;99586.59;;;9.61;75.68
9059;BME280;4564;42.034;25.834;2024-01-16T10:01:43;99588.25;;;9.90;75.88
9059;BME280;4564;42.034;25.834;2024-01-16T10:04:10;99582.69;;;10.04;75.53
9059;BME280;4564;42.034;25.834;2024-01-16T10:06:37;99575.00;;;10.08;76.05
9059;BME280;4564;42.034;25.834;2024-01-16T10:09:05;99566.06;;;10.14;75.54
9059;BME280;4564;42.034;25.834;2024-01-16T10:11:32;99577.16;;;10.19;74.41
9059;BME280;4564;42.034;25.834;2024-01-16T10:13:59;99584.50;;;10.25;74.32
9059;BME280;4564;42.034;25.834;2024-01-16T10:16:35;99594.91;;;10.22;74.42
9059;BME280;4564;42.034;25.834;2024-01-16T10:19:21;99599.81;;;10.11;74.38
9059;BME280;4564;42.034;25.834;2024-01-16T10:21:47;99604.03;;;10.14;73.34
9059;BME280;4564;42.034;25.834;2024-01-16T10:24:16;99610.13;;;10.23;73.43
9059;BME280;4564;42.034;25.834;2024-01-16T10:26:42;99617.84;;;10.19;71.11
9059;BME280;4564;42.034;25.834;2024-01-16T10:29:09;99610.56;;;10.26;70.89
9059;BME280;4564;42.034;25.834;2024-01-16T10:31:36;99623.72;;;10.29;69.77
9059;BME280;4564;42.034;25.834;2024-01-16T10:34:13;99621.63;;;10.31;70.32
9059;BME280;4564;42.034;25.834;2024-01-16T10:36:45;99629.53;;;10.26;70.81
9059;BME280;4564;42.034;25.834;2024-01-16T10:39:11;99625.78;;;10.27;70.50
9059;BME280;4564;42.034;25.834;2024-01-16T10:41:39;99629.06;;;10.16;70.34
9059;BME280;4564;42.034;25.834;2024-01-16T10:44:06;99626.47;;;10.01;70.85
9059;BME280;4564;42.034;25.834;2024-01-16T10:46:34;99630.16;;;9.94;71.70
9059;BME280;4564;42.034;25.834;2024-01-16T10:49:02;99634.78;;;10.00;71.93
9059;BME280;4564;42.034;25.834;2024-01-16T10:51:29;99642.06;;;9.93;70.66
9059;BME280;4564;42.034;25.834;2024-01-16T10:53:57;99644.56;;;9.94;70.57
9059;BME280;4564;42.034;25.834;2024-01-16T10:56:24;99644.91;;;9.85;69.42
9059;BME280;4564;42.034;25.834;2024-01-16T10:58:57;99643.09;;;9.92;69.88
9059;BME280;4564;42.034;25.834;2024-01-16T11:01:24;99644.38;;;9.96;69.93
9059;BME280;4564;42.034;25.834;2024-01-16T11:03:52;99647.72;;;9.98;69.85
9059;BME280;4564;42.034;25.834;2024-01-16T11:06:22;99643.72;;;9.94;69.26
9059;BME280;4564;42.034;25.834;2024-01-16T11:08:49;99631.47;;;9.98;68.91
9059;BME280;4564;42.034;25.834;2024-01-16T11:11:16;99634.41;;;10.09;68.04
9059;BME280;4564;42.034;25.834;2024-01-16T11:13:44;99639.13;;;10.22;67.17
9059;BME280;4564;42.034;25.834;2024-01-16T11:16:13;99641.69;;;10.37;67.36
9059;BME280;4564;42.034;25.834;2024-01-16T11:18:39;99642.50;;;10.31;67.17
9059;BME280;4564;42.034;25.834;2024-01-16T11:21:07;99642.09;;;10.34;65.98
9059;BME280;4564;42.034;25.834;2024-01-16T11:23:34;99645.47;;;10.36;65.99
9059;BME280;4564;42.034;25.834;2024-01-16T11:26:06;99638.78;;;10.38;67.04
9059;BME280;4564;42.034;25.834;2024-01-16T11:28:50;99648.41;;;10.47;66.67
9059;BME280;4564;42.034;25.834;2024-01-16T11:31:31;99660.09;;;10.41;65.47
9059;BME280;4564;42.034;25.834;2024-01-16T11:33:59;99654.63;;;10.35;64.50
9059;BME280;4564;42.034;25.834;2024-01-16T11:39:16;99659.03;;;10.42;64.98
9059;BME280;4564;42.034;25.834;2024-01-16T11:41:53;99666.59;;;10.47;65.19
9059;BME280;4564;42.034;25.834;2024-01-16T11:44:36;99673.06;;;10.52;64.47
9059;BME280;4564;42.034;25.834;2024-01-16T11:47:04;99680.53;;;10.44;64.56
9059;BME280;4564;42.034;25.834;2024-01-16T11:49:31;99680.78;;;10.56;64.08
9059;BME280;4564;42.034;25.834;2024-01-16T11:51:57;99675.78;;;10.52;64.36
9059;BME280;4564;42.034;25.834;2024-01-16T11:54:24;99681.81;;;10.55;64.11
9059;BME280;4564;42.034;25.834;2024-01-16T11:59:47;99695.59;;;10.53;63.98
9059;BME280;4564;42.034;25.834;2024-01-16T12:02:23;99696.03;;;10.57;63.20
9059;BME280;4564;42.034;25.834;2024-01-16T12:04:53;99698.53;;;10.51;63.44
9059;BME280;4564;42.034;25.834;2024-01-16T12:07:21;99697.91;;;10.56;63.15
9059;BME280;4564;42.034;25.834;2024-01-16T12:09:48;99698.34;;;10.60;62.94
9059;BME280;4564;42.034;25.834;2024-01-16T12:12:15;99698.34;;;10.60;62.75
9059;BME280;4564;42.034;25.834;2024-01-16T12:14:50;99694.38;;;10.56;62.58
9059;BME280;4564;42.034;25.834;2024-01-16T12:17:17;99704.78;;;10.59;62.46
9059;BME280;4564;42.034;25.834;2024-01-16T12:19:47;99711.44;;;10.49;62.20
9059;BME280;4564;42.034;25.834;2024-01-16T12:22:15;99707.94;;;10.56;61.68
9059;BME280;4564;42.034;25.834;2024-01-16T12:24:41;99719.03;;;10.67;61.69
9059;BME280;4564;42.034;25.834;2024-01-16T12:27:08;99715.91;;;10.70;61.10
9059;BME280;4564;42.034;25.834;2024-01-16T12:29:35;99727.59;;;10.71;59.55
9059;BME280;4564;42.034;25.834;2024-01-16T12:32:06;99732.63;;;10.67;60.48
9059;BME280;4564;42.034;25.834;2024-01-16T12:34:33;99723.97;;;10.50;59.79
9059;BME280;4564;42.034;25.834;2024-01-16T12:37:08;99735.22;;;10.47;60.08
9059;BME280;4564;42.034;25.834;2024-01-16T12:39:35;99745.25;;;10.47;60.32
9059;BME280;4564;42.034;25.834;2024-01-16T12:42:02;99738.56;;;10.49;59.06
9059;BME280;4564;42.034;25.834;2024-01-16T12:44:29;99740.44;;;10.49;58.89
9059;BME280;4564;42.034;25.834;2024-01-16T12:46:56;99741.28;;;10.49;59.24
9059;BME280;4564;42.034;25.834;2024-01-16T12:49:22;99750.44;;;10.48;58.31
9059;BME280;4564;42.034;25.834;2024-01-16T12:51:49;99746.34;;;10.59;57.91
9059;BME280;4564;42.034;25.834;2024-01-16T12:54:18;99751.03;;;10.78;57.54
9059;BME280;4564;42.034;25.834;2024-01-16T12:56:47;99752.72;;;10.86;56.83
9059;BME280;4564;42.034;25.834;2024-01-16T12:59:14;99760.28;;;10.97;56.88
9059;BME280;4564;42.034;25.834;2024-01-16T13:01:41;99766.38;;;10.99;55.75
9059;BME280;4564;42.034;25.834;2024-01-16T13:04:09;99765.31;;;11.00;55.90
9059;BME280;4564;42.034;25.834;2024-01-16T13:06:35;99765.78;;;11.10;56.17
9059;BME280;4564;42.034;25.834;2024-01-16T13:09:06;99782.22;;;11.02;55.24
9059;BME280;4564;42.034;25.834;2024-01-16T13:11:45;99783.41;;;10.86;54.65
9059;BME280;4564;42.034;25.834;2024-01-16T13:14:12;99791.41;;;10.94;55.06
9059;BME280;4564;42.034;25.834;2024-01-16T13:16:39;99808.25;;;10.83;55.14
9059;BME280;4564;42.034;25.834;2024-01-16T13:19:06;99815.72;;;10.75;55.05
9059;BME280;4564;42.034;25.834;2024-01-16T13:21:35;99809.63;;;10.66;54.15